sensor_id;sensor_type;location;lat;lon;timestamp;P1;durP1;ratioP1;P2;durP2;ratioP2
42632;SDS011;28261;53.304;-6.284;2024-01-15T00:02:11;7.60;;;2.90;;
42632;SDS011;28261;53.304;-6.284;2024-01-15T00:06:21;7.88;;;2.58;;
42632;SDS011;28261;53.304;-6.284;2024-01-15T00:08:26;10.75;;;2.80;;
42632;SDS011;28261;53.304;-6.284;2024-01-15T00:10:30;11.52;;;3.53;;
42632;SDS011;28261;53.304;-6.284;2024-01-15T00:12:34;9.25;;;3.00;;
42632;SDS011;28261;53.304;-6.284;2024-01-15T00:14:39;7.68;;;2.63;;
42632;SDS011;28261;53.304;-6.284;2024-01-15T00:16:42;10.35;;;3.25;;
42632;SDS011;28261;53.304;-6.284;2024-01-15T00:18:46;8.07;;;2.50;;
42632;SDS011;28261;53.304;-6.284;2024-01-15T00:20:50;10.65;;;2.75;;
42632;SDS011;28261;53.304;-6.284;2024-01-15T00:22:54;5.75;;;2.60;;
42632;SDS011;28261;53.304;-6.284;2024-01-15T00:24:58;8.07;;;2.45;;
42632;SDS011;28261;53.304;-6.284;2024-01-15T00:27:02;8.98;;;2.75;;
42632;SDS011;28261;53.304;-6.284;2024-01-15T00:29:06;6.63;;;2.38;;
42632;SDS011;28261;53.304;-6.284;2024-01-15T00:31:11;7.03;;;2.97;;
42632;SDS011;28261;53.304;-6.284;2024-01-15T00:33:15;6.30;;;2.30;;
42632;SDS011;28261;53.304;-6.284;2024-01-15T00:35:19;8.75;;;2.58;;
42632;SDS011;28261;53.304;-6.284;2024-01-15T00:37:23;7.72;;;2.67;;
42632;SDS011;28261;53.304;-6.284;2024-01-15T00:39:26;6.68;;;2.40;;
42632;SDS011;28261;53.304;-6.284;2024-01-15T00:41:30;8.45;;;2.10;;
42632;SDS011;28261;53.304;-6.284;2024-01-15T00:43:33;7.30;;;2.42;;
42632;SDS011;28261;53.304;-6.284;2024-01-15T00:45:37;8.02;;;2.45;;
42632;SDS011;28261;53.304;-6.284;2024-01-15T00:47:42;8.60;;;2.47;;
42632;SDS011;28261;53.304;-6.284;2024-01-15T00:51:49;10.00;;;3.28;;
42632;SDS011;28261;53.304;-6.284;2024-01-15T00:53:53;12.38;;;2.78;;
42632;SDS011;28261;53.304;-6.284;2024-01-15T00:55:57;8.38;;;2.70;;
42632;SDS011;28261;53.304;-6.284;2024-01-15T00:58:00;5.30;;;2.42;;
42632;SDS011;28261;53.304;-6.284;2024-01-15T01:00:05;8.43;;;3.13;;
42632;SDS011;28261;53.304;-6.284;2024-01-15T01:02:10;5.20;;;1.92;;
42632;SDS011;28261;53.304;-6.284;2024-01-15T01:04:16;6.55;;;2.92;;
42632;SDS011;28261;53.304;-6.284;2024-01-15T01:06:19;5.50;;;2.50;;
42632;SDS011;28261;53.304;-6.284;2024-01-15T01:08:22;8.32;;;2.53;;
42632;SDS011;28261;53.304;-6.284;2024-01-15T01:10:26;4.68;;;2.25;;
42632;SDS011;28261;53.304;-6.284;2024-01-15T01:12:30;6.13;;;2.35;;
42632;SDS011;28261;53.304;-6.284;2024-01-15T01:14:34;6.15;;;2.00;;
42632;SDS011;28261;53.304;-6.284;2024-01-15T01:16:38;9.45;;;2.15;;
42632;SDS011;28261;53.304;-6.284;2024-01-15T01:18:42;5.32;;;2.40;;
42632;SDS011;28261;53.304;-6.284;2024-01-15T01:20:47;5.65;;;2.20;;
42632;SDS011;28261;53.304;-6.284;2024-01-15T01:22:51;6.85;;;2.55;;
42632;SDS011;28261;53.304;-6.284;2024-01-15T01:24:54;4.80;;;2.17;;
42632;SDS011;28261;53.304;-6.284;2024-01-15T01:26:58;8.38;;;2.60;;
42632;SDS011;28261;53.304;-6.284;2024-01-15T01:29:01;4.47;;;2.15;;
42632;SDS011;28261;53.304;-6.284;2024-01-15T01:31:05;6.88;;;2.58;;
42632;SDS011;28261;53.304;-6.284;2024-01-15T01:33:10;4.47;;;2.30;;
42632;SDS011;28261;53.304;-6.284;2024-01-15T01:35:14;5.75;;;2.05;;
42632;SDS011;28261;53.304;-6.284;2024-01-15T01:37:19;7.70;;;1.88;;
42632;SDS011;28261;53.304;-6.284;2024-01-15T01:39:22;4.75;;;1.98;;
42632;SDS011;28261;53.304;-6.284;2024-01-15T01:41:25;5.68;;;2.53;;
42632;SDS011;28261;53.304;-6.284;2024-01-15T01:43:29;11.20;;;2.45;;
42632;SDS011;28261;53.304;-6.284;2024-01-15T01:45:32;4.18;;;1.67;;
42632;SDS011;28261;53.304;-6.284;2024-01-15T01:47:36;3.13;;;2.08;;
42632;SDS011;28261;53.304;-6.284;2024-01-15T01:49:40;7.43;;;2.17;;
42632;SDS011;28261;53.304;-6.284;2024-01-15T01:51:45;4.85;;;1.98;;
42632;SDS011;28261;53.304;-6.284;2024-01-15T01:53:51;8.00;;;1.77;;
42632;SDS011;28261;53.304;-6.284;2024-01-15T01:55:55;4.72;;;1.80;;
42632;SDS011;28261;53.304;-6.284;2024-01-15T01:58:00;7.90;;;1.60;;
42632;SDS011;28261;53.304;-6.284;2024-01-15T02:00:07;7.32;;;1.48;;
42632;SDS011;28261;53.304;-6.284;2024-01-15T02:04:15;12.60;;;1.80;;
42632;SDS011;28261;53.304;-6.284;2024-01-15T02:06:22;4.00;;;1.83;;
42632;SDS011;28261;53.304;-6.284;2024-01-15T02:08:26;2.85;;;1.73;;
42632;SDS011;28261;53.304;-6.284;2024-01-15T02:10:32;5.93;;;2.00;;
42632;SDS011;28261;53.304;-6.284;2024-01-15T02:12:35;6.80;;;1.70;;
42632;SDS011;28261;53.304;-6.284;2024-01-15T02:14:39;6.45;;;1.48;;
42632;SDS011;28261;53.304;-6.284;2024-01-15T02:16:43;7.03;;;2.05;;
42632;SDS011;28261;53.304;-6.284;2024-01-15T02:18:46;7.47;;;1.90;;
42632;SDS011;28261;53.304;-6.284;2024-01-15T02:20:50;5.25;;;1.70;;
42632;SDS011;28261;53.304;-6.284;2024-01-15T02:22:53;4.20;;;1.65;;
42632;SDS011;28261;53.304;-6.284;2024-01-15T02:24:58;7.15;;;1.65;;
42632;SDS011;28261;53.304;-6.284;2024-01-15T02:29:05;6.68;;;1.27;;
42632;SDS011;28261;53.304;-6.284;2024-01-15T02:31:09;7.07;;;1.77;;
42632;SDS011;28261;53.304;-6.284;2024-01-15T02:33:13;6.97;;;2.03;;
42632;SDS011;28261;53.304;-6.284;2024-01-15T02:35:18;7.50;;;2.03;;
42632;SDS011;28261;53.304;-6.284;2024-01-15T02:37:21;4.93;;;1.90;;
42632;SDS011;28261;53.304;-6.284;2024-01-15T02:39:25;5.20;;;1.52;;
42632;SDS011;28261;53.304;-6.284;2024-01-15T02:41:32;3.13;;;1.40;;
42632;SDS011;28261;53.304;-6.284;2024-01-15T02:43:36;5.20;;;1.67;;
42632;SDS011;28261;53.304;-6.284;2024-01-15T02:45:39;8.82;;;2.17;;
42632;SDS011;28261;53.304;-6.284;2024-01-15T02:47:44;4.57;;;1.73;;
42632;SDS011;28261;53.304;-6.284;2024-01-15T02:49:47;7.13;;;1.90;;
42632;SDS011;28261;53.304;-6.284;2024-01-15T02:51:51;4.75;;;1.73;;
42632;SDS011;28261;53.304;-6.284;2024-01-15T02:53:55;7.88;;;1.58;;
42632;SDS011;28261;53.304;-6.284;2024-01-15T02:55:59;3.13;;;1.38;;
42632;SDS011;28261;53.304;-6.284;2024-01-15T02:58:03;9.88;;;1.50;;
42632;SDS011;28261;53.304;-6.284;2024-01-15T03:00:07;6.43;;;1.50;;
42632;SDS011;28261;53.304;-6.284;2024-01-15T03:02:12;7.05;;;1.63;;
42632;SDS011;28261;53.304;-6.284;2024-01-15T03:04:15;4.55;;;0.98;;
42632;SDS011;28261;53.304;-6.284;2024-01-15T03:06:19;4.10;;;1.38;;
42632;SDS011;28261;53.304;-6.284;2024-01-15T03:08:23;4.75;;;0.90;;
42632;SDS011;28261;53.304;-6.284;2024-01-15T03:10:27;3.25;;;1.48;;
42632;SDS011;28261;53.304;-6.284;2024-01-15T03:12:30;2.72;;;1.05;;
42632;SDS011;28261;53.304;-6.284;2024-01-15T03:14:36;4.85;;;1.27;;
42632;SDS011;28261;53.304;-6.284;2024-01-15T03:16:40;5.43;;;1.50;;
42632;SDS011;28261;53.304;-6.284;2024-01-15T03:18:44;5.15;;;1.08;;
42632;SDS011;28261;53.304;-6.284;2024-01-15T03:20:47;5.70;;;1.35;;
42632;SDS011;28261;53.304;-6.284;2024-01-15T03:22:50;7.80;;;1.80;;
42632;SDS011;28261;53.304;-6.284;2024-01-15T03:24:54;9.52;;;1.35;;
42632;SDS011;28261;53.304;-6.284;2024-01-15T03:26:58;2.78;;;1.10;;
42632;SDS011;28261;53.304;-6.284;2024-01-15T03:29:00;5.90;;;1.80;;
42632;SDS011;28261;53.304;-6.284;2024-01-15T03:31:05;5.45;;;1.50;;
42632;SDS011;28261;53.304;-6.284;2024-01-15T03:33:11;2.63;;;1.33;;
42632;SDS011;28261;53.304;-6.284;2024-01-15T03:35:15;5.38;;;1.20;;
42632;SDS011;28261;53.304;-6.284;2024-01-15T03:37:18;2.35;;;1.33;;
42632;SDS011;28261;53.304;-6.284;2024-01-15T03:39:22;5.55;;;1.27;;
42632;SDS011;28261;53.304;-6.284;2024-01-15T03:41:26;3.92;;;0.93;;
42632;SDS011;28261;53.304;-6.284;2024-01-15T03:43:30;4.82;;;1.35;;
42632;SDS011;28261;53.304;-6.284;2024-01-15T03:45:33;2.88;;;1.55;;
42632;SDS011;28261;53.304;-6.284;2024-01-15T03:47:38;4.13;;;1.48;;
42632;SDS011;28261;53.304;-6.284;2024-01-15T03:51:45;6.22;;;1.10;;
42632;SDS011;28261;53.304;-6.284;2024-01-15T03:53:49;6.13;;;1.70;;
42632;SDS011;28261;53.304;-6.284;2024-01-15T03:55:52;4.68;;;1.23;;
42632;SDS011;28261;53.304;-6.284;2024-01-15T03:57:56;6.05;;;1.67;;
42632;SDS011;28261;53.304;-6.284;2024-01-15T03:59:59;3.22;;;1.23;;
42632;SDS011;28261;53.304;-6.284;2024-01-15T04:02:05;2.92;;;0.90;;
42632;SDS011;28261;53.304;-6.284;2024-01-15T04:04:10;5.50;;;1.13;;
42632;SDS011;28261;53.304;-6.284;2024-01-15T04:06:18;3.67;;;0.90;;
42632;SDS011;28261;53.304;-6.284;2024-01-15T04:08:22;4.53;;;1.20;;
42632;SDS011;28261;53.304;-6.284;2024-01-15T04:10:26;6.15;;;1.27;;
42632;SDS011;28261;53.304;-6.284;2024-01-15T04:12:29;3.80;;;1.40;;
42632;SDS011;28261;53.304;-6.284;2024-01-15T04:14:33;3.15;;;1.13;;
42632;SDS011;28261;53.304;-6.284;2024-01-15T04:16:37;6.15;;;1.52;;
42632;SDS011;28261;53.304;-6.284;2024-01-15T04:18:41;8.30;;;1.20;;
42632;SDS011;28261;53.304;-6.284;2024-01-15T04:20:46;1.63;;;0.82;;
42632;SDS011;28261;53.304;-6.284;2024-01-15T04:22:50;6.47;;;0.95;;
42632;SDS011;28261;53.304;-6.284;2024-01-15T04:24:54;5.38;;;0.90;;
42632;SDS011;28261;53.304;-6.284;2024-01-15T04:26:58;2.90;;;1.20;;
42632;SDS011;28261;53.304;-6.284;2024-01-15T04:29:01;0.90;;;0.57;;
42632;SDS011;28261;53.304;-6.284;2024-01-15T04:31:05;9.20;;;1.08;;
42632;SDS011;28261;53.304;-6.284;2024-01-15T04:33:09;6.07;;;1.05;;
42632;SDS011;28261;53.304;-6.284;2024-01-15T04:35:13;1.35;;;1.02;;
42632;SDS011;28261;53.304;-6.284;2024-01-15T04:37:19;2.15;;;0.63;;
42632;SDS011;28261;53.304;-6.284;2024-01-15T04:39:22;7.55;;;1.50;;
42632;SDS011;28261;53.304;-6.284;2024-01-15T04:41:26;1.67;;;0.68;;
42632;SDS011;28261;53.304;-6.284;2024-01-15T04:43:29;4.80;;;1.13;;
42632;SDS011;28261;53.304;-6.284;2024-01-15T04:45:33;3.65;;;0.90;;
42632;SDS011;28261;53.304;-6.284;2024-01-15T04:47:37;2.55;;;0.80;;
42632;SDS011;28261;53.304;-6.284;2024-01-15T04:49:40;2.28;;;0.85;;
42632;SDS011;28261;53.304;-6.284;2024-01-15T04:51:44;4.47;;;1.25;;
42632;SDS011;28261;53.304;-6.284;2024-01-15T04:53:49;3.83;;;1.88;;
42632;SDS011;28261;53.304;-6.284;2024-01-15T04:55:53;3.10;;;1.10;;
42632;SDS011;28261;53.304;-6.284;2024-01-15T04:57:56;2.38;;;0.68;;
42632;SDS011;28261;53.304;-6.284;2024-01-15T05:00:00;5.30;;;0.98;;
42632;SDS011;28261;53.304;-6.284;2024-01-15T05:02:04;3.95;;;0.85;;
42632;SDS011;28261;53.304;-6.284;2024-01-15T05:04:08;6.50;;;0.73;;
42632;SDS011;28261;53.304;-6.284;2024-01-15T05:06:11;7.25;;;1.20;;
42632;SDS011;28261;53.304;-6.284;2024-01-15T05:08:16;2.97;;;0.80;;
42632;SDS011;28261;53.304;-6.284;2024-01-15T05:10:21;2.63;;;0.63;;
42632;SDS011;28261;53.304;-6.284;2024-01-15T05:12:25;4.32;;;1.10;;
42632;SDS011;28261;53.304;-6.284;2024-01-15T05:14:28;3.78;;;0.90;;
42632;SDS011;28261;53.304;-6.284;2024-01-15T05:16:32;3.72;;;0.98;;
42632;SDS011;28261;53.304;-6.284;2024-01-15T05:18:36;4.78;;;0.88;;
42632;SDS011;28261;53.304;-6.284;2024-01-15T05:20:39;5.40;;;0.82;;
42632;SDS011;28261;53.304;-6.284;2024-01-15T05:22:43;1.67;;;0.68;;
42632;SDS011;28261;53.304;-6.284;2024-01-15T05:24:45;2.47;;;1.15;;
42632;SDS011;28261;53.304;-6.284;2024-01-15T05:26:51;2.10;;;0.70;;
42632;SDS011;28261;53.304;-6.284;2024-01-15T05:28:54;5.95;;;0.90;;
42632;SDS011;28261;53.304;-6.284;2024-01-15T05:30:58;3.70;;;1.00;;
42632;SDS011;28261;53.304;-6.284;2024-01-15T05:33:03;2.58;;;0.80;;
42632;SDS011;28261;53.304;-6.284;2024-01-15T05:35:10;3.92;;;0.77;;
42632;SDS011;28261;53.304;-6.284;2024-01-15T05:37:14;4.32;;;1.10;;
42632;SDS011;28261;53.304;-6.284;2024-01-15T05:39:17;4.82;;;1.08;;
42632;SDS011;28261;53.304;-6.284;2024-01-15T05:41:24;3.47;;;0.73;;
42632;SDS011;28261;53.304;-6.284;2024-01-15T05:43:29;4.07;;;0.90;;
42632;SDS011;28261;53.304;-6.284;2024-01-15T05:45:34;3.55;;;0.90;;
42632;SDS011;28261;53.304;-6.284;2024-01-15T05:47:38;4.63;;;0.75;;
42632;SDS011;28261;53.304;-6.284;2024-01-15T05:49:42;2.58;;;1.10;;
42632;SDS011;28261;53.304;-6.284;2024-01-15T05:51:46;6.10;;;0.90;;
42632;SDS011;28261;53.304;-6.284;2024-01-15T05:53:49;4.07;;;1.10;;
42632;SDS011;28261;53.304;-6.284;2024-01-15T05:55:53;9.23;;;1.20;;
42632;SDS011;28261;53.304;-6.284;2024-01-15T05:57:57;7.85;;;1.55;;
42632;SDS011;28261;53.304;-6.284;2024-01-15T06:00:03;2.40;;;0.75;;
42632;SDS011;28261;53.304;-6.284;2024-01-15T06:02:08;2.80;;;1.80;;
42632;SDS011;28261;53.304;-6.284;2024-01-15T06:04:12;6.90;;;0.88;;
42632;SDS011;28261;53.304;-6.284;2024-01-15T06:06:16;3.85;;;1.00;;
42632;SDS011;28261;53.304;-6.284;2024-01-15T06:08:20;4.57;;;0.90;;
42632;SDS011;28261;53.304;-6.284;2024-01-15T06:10:24;4.43;;;1.00;;
42632;SDS011;28261;53.304;-6.284;2024-01-15T06:12:27;8.75;;;1.73;;
42632;SDS011;28261;53.304;-6.284;2024-01-15T06:14:31;5.28;;;1.08;;
42632;SDS011;28261;53.304;-6.284;2024-01-15T06:16:36;6.03;;;1.48;;
42632;SDS011;28261;53.304;-6.284;2024-01-15T06:18:40;5.85;;;1.40;;
42632;SDS011;28261;53.304;-6.284;2024-01-15T06:20:43;7.00;;;0.93;;
42632;SDS011;28261;53.304;-6.284;2024-01-15T06:22:46;7.22;;;1.83;;
42632;SDS011;28261;53.304;-6.284;2024-01-15T06:24:50;5.05;;;1.38;;
42632;SDS011;28261;53.304;-6.284;2024-01-15T06:26:54;5.47;;;1.45;;
42632;SDS011;28261;53.304;-6.284;2024-01-15T06:28:57;2.30;;;0.93;;
42632;SDS011;28261;53.304;-6.284;2024-01-15T06:31:00;4.05;;;0.98;;
42632;SDS011;28261;53.304;-6.284;2024-01-15T06:33:06;2.75;;;1.00;;
42632;SDS011;28261;53.304;-6.284;2024-01-15T06:35:10;4.03;;;0.85;;
42632;SDS011;28261;53.304;-6.284;2024-01-15T06:37:13;6.38;;;1.42;;
42632;SDS011;28261;53.304;-6.284;2024-01-15T06:39:17;6.00;;;1.30;;
42632;SDS011;28261;53.304;-6.284;2024-01-15T06:41:21;6.03;;;1.48;;
42632;SDS011;28261;53.304;-6.284;2024-01-15T06:43:26;5.47;;;1.55;;
42632;SDS011;28261;53.304;-6.284;2024-01-15T06:45:30;3.13;;;1.10;;
42632;SDS011;28261;53.304;-6.284;2024-01-15T06:47:34;3.72;;;1.63;;
42632;SDS011;28261;53.304;-6.284;2024-01-15T06:49:39;7.65;;;2.08;;
42632;SDS011;28261;53.304;-6.284;2024-01-15T06:51:43;9.80;;;1.23;;
42632;SDS011;28261;53.304;-6.284;2024-01-15T06:53:50;7.53;;;1.33;;
42632;SDS011;28261;53.304;-6.284;2024-01-15T06:55:54;3.05;;;1.35;;
42632;SDS011;28261;53.304;-6.284;2024-01-15T06:57:57;8.13;;;0.93;;
42632;SDS011;28261;53.304;-6.284;2024-01-15T07:00:01;3.10;;;1.00;;
42632;SDS011;28261;53.304;-6.284;2024-01-15T07:02:10;5.10;;;1.15;;
42632;SDS011;28261;53.304;-6.284;2024-01-15T07:04:12;4.45;;;1.35;;
42632;SDS011;28261;53.304;-6.284;2024-01-15T07:06:18;4.13;;;1.75;;
42632;SDS011;28261;53.304;-6.284;2024-01-15T07:08:21;2.95;;;1.08;;
42632;SDS011;28261;53.304;-6.284;2024-01-15T07:10:25;5.72;;;1.02;;
42632;SDS011;28261;53.304;-6.284;2024-01-15T07:12:29;5.82;;;1.60;;
42632;SDS011;28261;53.304;-6.284;2024-01-15T07:14:33;5.40;;;1.20;;
42632;SDS011;28261;53.304;-6.284;2024-01-15T07:16:37;6.97;;;1.20;;
42632;SDS011;28261;53.304;-6.284;2024-01-15T07:18:41;4.03;;;1.48;;
42632;SDS011;28261;53.304;-6.284;2024-01-15T07:20:45;4.32;;;0.95;;
42632;SDS011;28261;53.304;-6.284;2024-01-15T07:22:50;3.72;;;1.00;;
42632;SDS011;28261;53.304;-6.284;2024-01-15T07:24:54;4.55;;;1.23;;
42632;SDS011;28261;53.304;-6.284;2024-01-15T07:26:58;4.63;;;1.63;;
42632;SDS011;28261;53.304;-6.284;2024-01-15T07:29:02;7.47;;;1.60;;
42632;SDS011;28261;53.304;-6.284;2024-01-15T07:31:06;3.03;;;0.88;;
42632;SDS011;28261;53.304;-6.284;2024-01-15T07:33:11;4.97;;;1.08;;
42632;SDS011;28261;53.304;-6.284;2024-01-15T07:35:15;3.65;;;1.52;;
42632;SDS011;28261;53.304;-6.284;2024-01-15T07:37:20;5.60;;;1.08;;
42632;SDS011;28261;53.304;-6.284;2024-01-15T07:39:26;3.95;;;1.55;;
42632;SDS011;28261;53.304;-6.284;2024-01-15T07:41:30;4.82;;;2.05;;
42632;SDS011;28261;53.304;-6.284;2024-01-15T07:43:34;4.22;;;1.58;;
42632;SDS011;28261;53.304;-6.284;2024-01-15T07:45:38;8.30;;;1.45;;
42632;SDS011;28261;53.304;-6.284;2024-01-15T07:47:46;6.72;;;1.67;;
42632;SDS011;28261;53.304;-6.284;2024-01-15T07:49:51;5.07;;;1.55;;
42632;SDS011;28261;53.304;-6.284;2024-01-15T07:51:56;8.77;;;1.70;;
42632;SDS011;28261;53.304;-6.284;2024-01-15T07:53:59;6.47;;;1.55;;
42632;SDS011;28261;53.304;-6.284;2024-01-15T07:56:05;3.33;;;1.50;;
42632;SDS011;28261;53.304;-6.284;2024-01-15T07:58:09;5.78;;;1.50;;
42632;SDS011;28261;53.304;-6.284;2024-01-15T08:00:17;3.80;;;1.35;;
42632;SDS011;28261;53.304;-6.284;2024-01-15T08:02:20;5.03;;;0.98;;
42632;SDS011;28261;53.304;-6.284;2024-01-15T08:04:24;5.40;;;1.30;;
42632;SDS011;28261;53.304;-6.284;2024-01-15T08:06:29;2.65;;;1.13;;
42632;SDS011;28261;53.304;-6.284;2024-01-15T08:08:32;3.65;;;1.10;;
42632;SDS011;28261;53.304;-6.284;2024-01-15T08:10:36;6.28;;;1.30;;
42632;SDS011;28261;53.304;-6.284;2024-01-15T08:12:41;3.00;;;1.15;;
42632;SDS011;28261;53.304;-6.284;2024-01-15T08:14:45;4.13;;;1.25;;
42632;SDS011;28261;53.304;-6.284;2024-01-15T08:16:49;3.97;;;1.23;;
42632;SDS011;28261;53.304;-6.284;2024-01-15T08:18:53;1.85;;;1.05;;
42632;SDS011;28261;53.304;-6.284;2024-01-15T08:20:57;5.03;;;1.25;;
42632;SDS011;28261;53.304;-6.284;2024-01-15T08:23:01;7.78;;;1.35;;
42632;SDS011;28261;53.304;-6.284;2024-01-15T08:25:05;8.32;;;1.27;;
42632;SDS011;28261;53.304;-6.284;2024-01-15T08:27:09;3.15;;;0.93;;
42632;SDS011;28261;53.304;-6.284;2024-01-15T08:29:14;4.10;;;1.33;;
42632;SDS011;28261;53.304;-6.284;2024-01-15T08:31:18;4.53;;;1.30;;
42632;SDS011;28261;53.304;-6.284;2024-01-15T08:33:20;2.72;;;0.98;;
42632;SDS011;28261;53.304;-6.284;2024-01-15T08:35:25;5.13;;;0.82;;
42632;SDS011;28261;53.304;-6.284;2024-01-15T08:37:29;5.60;;;0.90;;
42632;SDS011;28261;53.304;-6.284;2024-01-15T08:39:32;6.40;;;1.42;;
42632;SDS011;28261;53.304;-6.284;2024-01-15T08:41:37;4.18;;;1.08;;
42632;SDS011;28261;53.304;-6.284;2024-01-15T08:43:41;9.07;;;1.95;;
42632;SDS011;28261;53.304;-6.284;2024-01-15T08:45:46;9.25;;;1.60;;
42632;SDS011;28261;53.304;-6.284;2024-01-15T08:47:50;6.20;;;1.08;;
42632;SDS011;28261;53.304;-6.284;2024-01-15T08:49:55;3.75;;;0.90;;
42632;SDS011;28261;53.304;-6.284;2024-01-15T08:51:58;4.65;;;0.98;;
42632;SDS011;28261;53.304;-6.284;2024-01-15T08:54:02;5.57;;;1.42;;
42632;SDS011;28261;53.304;-6.284;2024-01-15T08:56:06;3.60;;;1.20;;
42632;SDS011;28261;53.304;-6.284;2024-01-15T08:58:10;4.10;;;1.35;;
42632;SDS011;28261;53.304;-6.284;2024-01-15T09:00:14;6.32;;;1.75;;
42632;SDS011;28261;53.304;-6.284;2024-01-15T09:02:20;11.43;;;1.65;;
42632;SDS011;28261;53.304;-6.284;2024-01-15T09:04:24;2.67;;;1.20;;
42632;SDS011;28261;53.304;-6.284;2024-01-15T09:06:28;9.80;;;1.48;;
42632;SDS011;28261;53.304;-6.284;2024-01-15T09:08:32;4.85;;;1.13;;
42632;SDS011;28261;53.304;-6.284;2024-01-15T09:10:35;6.47;;;1.33;;
42632;SDS011;28261;53.304;-6.284;2024-01-15T09:12:39;4.03;;;1.25;;
42632;SDS011;28261;53.304;-6.284;2024-01-15T09:14:43;5.18;;;1.13;;
42632;SDS011;28261;53.304;-6.284;2024-01-15T09:16:47;4.70;;;1.45;;
42632;SDS011;28261;53.304;-6.284;2024-01-15T09:18:52;4.43;;;1.20;;
42632;SDS011;28261;53.304;-6.284;2024-01-15T09:20:59;5.85;;;1.50;;
42632;SDS011;28261;53.304;-6.284;2024-01-15T09:23:02;4.90;;;1.15;;
42632;SDS011;28261;53.304;-6.284;2024-01-15T09:25:06;2.15;;;1.48;;
42632;SDS011;28261;53.304;-6.284;2024-01-15T09:27:10;4.30;;;1.00;;
42632;SDS011;28261;53.304;-6.284;2024-01-15T09:29:14;4.35;;;1.50;;
42632;SDS011;28261;53.304;-6.284;2024-01-15T09:31:19;2.97;;;1.30;;
42632;SDS011;28261;53.304;-6.284;2024-01-15T09:33:23;8.45;;;1.40;;
42632;SDS011;28261;53.304;-6.284;2024-01-15T09:35:28;8.15;;;1.58;;
42632;SDS011;28261;53.304;-6.284;2024-01-15T09:37:32;3.47;;;1.15;;
42632;SDS011;28261;53.304;-6.284;2024-01-15T09:39:48;4.88;;;1.42;;
42632;SDS011;28261;53.304;-6.284;2024-01-15T09:41:52;4.82;;;1.92;;
42632;SDS011;28261;53.304;-6.284;2024-01-15T09:43:57;6.15;;;1.38;;
42632;SDS011;28261;53.304;-6.284;2024-01-15T09:46:02;5.40;;;2.63;;
42632;SDS011;28261;53.304;-6.284;2024-01-15T09:48:07;6.30;;;1.60;;
42632;SDS011;28261;53.304;-6.284;2024-01-15T09:50:11;4.43;;;1.42;;
42632;SDS011;28261;53.304;-6.284;2024-01-15T09:52:17;5.10;;;1.45;;
42632;SDS011;28261;53.304;-6.284;2024-01-15T09:54:22;7.70;;;1.50;;
42632;SDS011;28261;53.304;-6.284;2024-01-15T09:56:25;5.45;;;1.40;;
42632;SDS011;28261;53.304;-6.284;2024-01-15T09:58:29;5.03;;;1.50;;
42632;SDS011;28261;53.304;-6.284;2024-01-15T10:00:35;3.22;;;1.08;;
42632;SDS011;28261;53.304;-6.284;2024-01-15T10:02:43;5.32;;;1.38;;
42632;SDS011;28261;53.304;-6.284;2024-01-15T10:04:47;7.60;;;1.65;;
42632;SDS011;28261;53.304;-6.284;2024-01-15T10:06:50;4.25;;;1.20;;
42632;SDS011;28261;53.304;-6.284;2024-01-15T10:08:56;2.65;;;1.00;;
42632;SDS011;28261;53.304;-6.284;2024-01-15T10:11:01;4.63;;;1.40;;
42632;SDS011;28261;53.304;-6.284;2024-01-15T10:13:06;4.97;;;1.35;;
42632;SDS011;28261;53.304;-6.284;2024-01-15T10:15:09;4.88;;;1.52;;
42632;SDS011;28261;53.304;-6.284;2024-01-15T10:19:19;8.30;;;1.40;;
42632;SDS011;28261;53.304;-6.284;2024-01-15T10:21:23;5.75;;;1.23;;
42632;SDS011;28261;53.304;-6.284;2024-01-15T10:25:33;4.03;;;0.93;;
42632;SDS011;28261;53.304;-6.284;2024-01-15T10:27:38;2.92;;;1.05;;
42632;SDS011;28261;53.304;-6.284;2024-01-15T10:29:43;1.98;;;1.08;;
42632;SDS011;28261;53.304;-6.284;2024-01-15T10:31:46;7.32;;;1.30;;
42632;SDS011;28261;53.304;-6.284;2024-01-15T10:33:51;6.18;;;1.67;;
42632;SDS011;28261;53.304;-6.284;2024-01-15T10:35:55;6.38;;;1.23;;
42632;SDS011;28261;53.304;-6.284;2024-01-15T10:37:59;5.03;;;1.42;;
42632;SDS011;28261;53.304;-6.284;2024-01-15T10:40:04;5.35;;;1.30;;
42632;SDS011;28261;53.304;-6.284;2024-01-15T10:44:14;8.50;;;1.25;;
42632;SDS011;28261;53.304;-6.284;2024-01-15T10:46:17;4.38;;;1.17;;
42632;SDS011;28261;53.304;-6.284;2024-01-15T10:48:21;4.38;;;1.02;;
42632;SDS011;28261;53.304;-6.284;2024-01-15T10:50:25;7.60;;;1.13;;
42632;SDS011;28261;53.304;-6.284;2024-01-15T10:52:28;6.68;;;1.45;;
42632;SDS011;28261;53.304;-6.284;2024-01-15T10:54:33;4.38;;;1.23;;
42632;SDS011;28261;53.304;-6.284;2024-01-15T10:56:39;3.13;;;1.02;;
42632;SDS011;28261;53.304;-6.284;2024-01-15T10:58:44;5.05;;;1.23;;
42632;SDS011;28261;53.304;-6.284;2024-01-15T11:00:49;8.57;;;1.63;;
42632;SDS011;28261;53.304;-6.284;2024-01-15T11:02:53;6.10;;;1.70;;
42632;SDS011;28261;53.304;-6.284;2024-01-15T11:04:58;2.35;;;1.25;;
42632;SDS011;28261;53.304;-6.284;2024-01-15T11:07:02;4.90;;;1.50;;
42632;SDS011;28261;53.304;-6.284;2024-01-15T11:09:08;4.28;;;1.65;;
42632;SDS011;28261;53.304;-6.284;2024-01-15T11:11:13;6.03;;;1.20;;
42632;SDS011;28261;53.304;-6.284;2024-01-15T11:13:19;6.13;;;1.85;;
42632;SDS011;28261;53.304;-6.284;2024-01-15T11:15:30;3.90;;;1.67;;
42632;SDS011;28261;53.304;-6.284;2024-01-15T11:20:05;3.75;;;1.23;;
42632;SDS011;28261;53.304;-6.284;2024-01-15T11:22:10;4.63;;;1.65;;
42632;SDS011;28261;53.304;-6.284;2024-01-15T11:24:34;3.95;;;1.15;;
42632;SDS011;28261;53.304;-6.284;2024-01-15T11:26:43;5.18;;;1.33;;
42632;SDS011;28261;53.304;-6.284;2024-01-15T11:28:48;5.22;;;1.20;;
42632;SDS011;28261;53.304;-6.284;2024-01-15T11:30:54;8.20;;;2.05;;
42632;SDS011;28261;53.304;-6.284;2024-01-15T11:32:58;2.38;;;1.63;;
42632;SDS011;28261;53.304;-6.284;2024-01-15T11:35:02;5.32;;;1.88;;
42632;SDS011;28261;53.304;-6.284;2024-01-15T11:37:08;3.45;;;1.30;;
42632;SDS011;28261;53.304;-6.284;2024-01-15T11:41:46;4.95;;;1.90;;
42632;SDS011;28261;53.304;-6.284;2024-01-15T11:43:49;11.05;;;1.85;;
42632;SDS011;28261;53.304;-6.284;2024-01-15T11:45:54;7.80;;;1.83;;
42632;SDS011;28261;53.304;-6.284;2024-01-15T11:48:08;5.47;;;1.63;;
42632;SDS011;28261;53.304;-6.284;2024-01-15T11:50:14;4.95;;;1.70;;
42632;SDS011;28261;53.304;-6.284;2024-01-15T11:52:18;5.78;;;1.73;;
42632;SDS011;28261;53.304;-6.284;2024-01-15T11:54:23;5.82;;;1.48;;
42632;SDS011;28261;53.304;-6.284;2024-01-15T11:56:28;4.72;;;1.50;;
42632;SDS011;28261;53.304;-6.284;2024-01-15T11:58:34;6.88;;;2.10;;
42632;SDS011;28261;53.304;-6.284;2024-01-15T12:02:45;5.18;;;1.88;;
42632;SDS011;28261;53.304;-6.284;2024-01-15T12:04:50;4.28;;;1.77;;
42632;SDS011;28261;53.304;-6.284;2024-01-15T12:06:54;6.55;;;2.33;;
42632;SDS011;28261;53.304;-6.284;2024-01-15T12:09:05;5.30;;;2.28;;
42632;SDS011;28261;53.304;-6.284;2024-01-15T12:11:10;3.88;;;2.00;;
42632;SDS011;28261;53.304;-6.284;2024-01-15T12:13:17;7.38;;;1.90;;
42632;SDS011;28261;53.304;-6.284;2024-01-15T12:15:19;4.05;;;1.63;;
42632;SDS011;28261;53.304;-6.284;2024-01-15T12:17:23;8.27;;;1.50;;
42632;SDS011;28261;53.304;-6.284;2024-01-15T12:19:29;4.97;;;1.52;;
42632;SDS011;28261;53.304;-6.284;2024-01-15T12:21:33;7.45;;;1.48;;
42632;SDS011;28261;53.304;-6.284;2024-01-15T12:23:37;3.47;;;1.23;;
42632;SDS011;28261;53.304;-6.284;2024-01-15T12:25:42;10.27;;;1.50;;
42632;SDS011;28261;53.304;-6.284;2024-01-15T12:27:46;10.48;;;1.85;;
42632;SDS011;28261;53.304;-6.284;2024-01-15T12:29:50;9.80;;;1.75;;
42632;SDS011;28261;53.304;-6.284;2024-01-15T12:31:55;6.55;;;1.80;;
42632;SDS011;28261;53.304;-6.284;2024-01-15T12:33:58;13.27;;;2.08;;
42632;SDS011;28261;53.304;-6.284;2024-01-15T12:36:05;5.68;;;1.90;;
42632;SDS011;28261;53.304;-6.284;2024-01-15T12:38:10;5.70;;;1.50;;
42632;SDS011;28261;53.304;-6.284;2024-01-15T12:40:18;9.60;;;2.13;;
42632;SDS011;28261;53.304;-6.284;2024-01-15T12:42:21;4.63;;;1.23;;